Time;durP1;ratioP1;P1;durP2;ratioP2;P2;SDS_P1;SDS_P2;PMS_P1;PMS_P2;Temp;Humidity;BMP_temperature;BMP_pressure;BME280_temperature;BME280_humidity;BME280_pressure;Samples;Min_cycle;Max_cycle;Signal;HPM_P1;HPM_P2
2022/11/30 00:02:21;;;;;;;31.77;18.07;;;;;;;;;;5033328;28;20490;-54
2022/11/30 00:04:47;;;;;;;25.63;16.40;;;;;;;;;;5062168;28;20438;-55
2022/11/30 00:07:13;;;;;;;29.73;16.87;;;;;;;;;;5038467;28;20452;-54
2022/11/30 00:09:39;;;;;;;33.33;17.30;;;;;;;;;;5063919;28;21018;-54
2022/11/30 00:12:05;;;;;;;28.00;15.87;;;;;;;;;;5031074;28;20449;-52
2022/11/30 00:14:31;;;;;;;32.03;17.80;;;;;;;;;;5062404;28;20426;-55
2022/11/30 00:17:00;;;;;;;31.50;19.00;;;;;;;;;;5012184;28;21017;-54
2022/11/30 00:19:26;;;;;;;29.27;17.20;;;;;;;;;;5057489;28;20460;-56
2022/11/30 00:21:56;;;;;;;35.73;18.67;;;;;;;;;;5021694;28;21313;-55
2022/11/30 00:24:22;;;;;;;34.93;20.73;;;;;;;;;;5061202;28;21307;-54
2022/11/30 00:26:48;;;;;;;27.60;17.10;;;;;;;;;;5056263;28;20431;-55
2022/11/30 00:29:13;;;;;;;34.50;19.27;;;;;;;;;;5060894;28;20477;-55
2022/11/30 00:31:39;;;;;;;38.50;19.27;;;;;;;;;;5045151;28;20944;-54
2022/11/30 00:34:05;;;;;;;31.70;18.70;;;;;;;;;;5053097;28;20539;-54
2022/11/30 00:36:31;;;;;;;31.37;18.30;;;;;;;;;;5046991;28;20448;-54
2022/11/30 00:38:57;;;;;;;33.03;18.80;;;;;;;;;;5051445;28;20429;-53
2022/11/30 00:41:24;;;;;;;34.80;18.47;;;;;;;;;;5056559;28;20430;-53
2022/11/30 00:43:50;;;;;;;31.70;17.70;;;;;;;;;;5045670;28;20480;-53
2022/11/30 00:46:22;;;;;;;32.13;17.80;;;;;;;;;;5066285;28;20457;-58
2022/11/30 00:48:48;;;;;;;32.50;17.43;;;;;;;;;;5031549;28;20476;-53
2022/11/30 00:51:14;;;;;;;30.53;17.63;;;;;;;;;;5044829;28;20453;-54
2022/11/30 00:53:40;;;;;;;29.83;17.03;;;;;;;;;;5033745;28;20525;-54
2022/11/30 00:56:06;;;;;;;33.27;17.50;;;;;;;;;;5062667;28;20992;-53
2022/11/30 00:58:32;;;;;;;34.20;17.93;;;;;;;;;;5053608;28;20449;-52
2022/11/30 01:00:58;;;;;;;38.03;20.00;;;;;;;;;;5058204;28;20438;-54
2022/11/30 01:03:24;;;;;;;30.80;18.13;;;;;;;;;;5042966;28;20515;-54
2022/11/30 01:05:50;;;;;;;38.23;18.33;;;;;;;;;;5059242;28;20437;-54
2022/11/30 01:08:16;;;;;;;30.87;18.17;;;;;;;;;;5036697;28;20521;-54
2022/11/30 01:10:43;;;;;;;29.60;16.97;;;;;;;;;;5061235;28;21064;-54
2022/11/30 01:13:09;;;;;;;28.90;17.30;;;;;;;;;;5018584;28;20455;-54
2022/11/30 01:15:36;;;;;;;33.53;17.07;;;;;;;;;;5052780;28;20478;-53
2022/11/30 01:18:02;;;;;;;36.83;20.13;;;;;;;;;;5007629;28;20446;-54
2022/11/30 01:20:28;;;;;;;32.73;18.00;;;;;;;;;;5056093;28;20450;-54
2022/11/30 01:22:54;;;;;;;33.20;20.37;;;;;;;;;;5045387;28;20441;-54
2022/11/30 01:25:20;;;;;;;27.07;17.10;;;;;;;;;;5048272;28;20438;-54
2022/11/30 01:27:49;;;;;;;26.77;17.47;;;;;;;;;;5018625;28;20480;-55
2022/11/30 01:30:15;;;;;;;27.87;16.33;;;;;;;;;;5046729;28;20532;-54
2022/11/30 01:32:41;;;;;;;36.20;18.43;;;;;;;;;;5029703;28;20438;-54
2022/11/30 01:35:07;;;;;;;34.60;15.90;;;;;;;;;;5049659;28;20429;-54
2022/11/30 01:37:33;;;;;;;34.40;19.17;;;;;;;;;;5028417;28;20448;-54
2022/11/30 01:39:59;;;;;;;36.00;16.87;;;;;;;;;;5058564;28;20468;-54
2022/11/30 01:42:25;;;;;;;26.77;16.50;;;;;;;;;;5054228;28;20517;-58
2022/11/30 01:44:55;;;;;;;30.83;17.13;;;;;;;;;;5059853;28;20930;-54
2022/11/30 01:47:41;;;;;;;37.13;21.17;;;;;;;;;;5017147;28;20532;-56
2022/11/30 01:50:09;;;;;;;30.57;19.87;;;;;;;;;;5055735;28;20570;-54
2022/11/30 01:52:36;;;;;;;34.97;18.70;;;;;;;;;;5032217;28;20452;-54
2022/11/30 01:55:02;;;;;;;27.97;15.70;;;;;;;;;;5040561;28;20482;-54
2022/11/30 01:57:27;;;;;;;28.80;19.37;;;;;;;;;;5023773;28;20445;-54
2022/11/30 01:59:54;;;;;;;28.60;17.40;;;;;;;;;;5057405;28;20501;-54
2022/11/30 02:02:20;;;;;;;33.67;17.30;;;;;;;;;;5053896;28;20456;-53
2022/11/30 02:04:46;;;;;;;29.90;16.17;;;;;;;;;;5076776;28;20433;-53
2022/11/30 02:07:12;;;;;;;32.73;17.00;;;;;;;;;;5057764;28;20501;-54
2022/11/30 02:09:40;;;;;;;35.27;17.40;;;;;;;;;;5062183;28;20489;-54
2022/11/30 02:12:06;;;;;;;25.70;16.50;;;;;;;;;;5036852;28;20825;-53
2022/11/30 02:14:50;;;;;;;26.30;17.10;;;;;;;;;;5060076;28;20821;-53
2022/11/30 02:17:16;;;;;;;30.70;16.40;;;;;;;;;;5053121;28;20471;-53
2022/11/30 02:20:18;;;;;;;27.90;18.40;;;;;;;;;;5058130;28;20421;-53
2022/11/30 02:23:03;;;;;;;27.30;17.00;;;;;;;;;;4953026;28;20440;-52
2022/11/30 02:25:38;;;;;;;33.20;17.13;;;;;;;;;;5049480;28;20929;-53
2022/11/30 02:28:10;;;;;;;28.07;15.93;;;;;;;;;;5034354;28;20433;-53
2022/11/30 02:30:37;;;;;;;22.77;14.47;;;;;;;;;;5063730;28;20443;-53
2022/11/30 02:33:13;;;;;;;30.70;16.97;;;;;;;;;;5045446;28;20447;-53
2022/11/30 02:35:40;;;;;;;34.37;17.20;;;;;;;;;;5067524;28;20516;-53
2022/11/30 02:38:06;;;;;;;22.80;16.00;;;;;;;;;;5056125;28;20562;-53
2022/11/30 02:40:32;;;;;;;28.73;17.40;;;;;;;;;;5057787;28;20524;-56
2022/11/30 02:42:59;;;;;;;30.63;14.50;;;;;;;;;;5057308;28;20441;-53
2022/11/30 02:45:33;;;;;;;21.17;14.47;;;;;;;;;;5037083;28;20440;-53
2022/11/30 02:48:04;;;;;;;27.93;15.53;;;;;;;;;;5058833;28;20428;-53
2022/11/30 02:50:32;;;;;;;25.17;14.40;;;;;;;;;;5054598;28;20433;-54
2022/11/30 02:52:58;;;;;;;30.37;15.63;;;;;;;;;;5027952;28;20445;-53
2022/11/30 02:55:24;;;;;;;28.13;16.43;;;;;;;;;;5061061;28;20464;-54
2022/11/30 02:57:50;;;;;;;24.43;14.67;;;;;;;;;;5027174;28;20441;-53
2022/11/30 03:00:16;;;;;;;23.20;14.90;;;;;;;;;;5041348;28;21194;-53
2022/11/30 03:02:42;;;;;;;28.07;13.30;;;;;;;;;;5040788;28;20453;-54
2022/11/30 03:05:09;;;;;;;24.47;14.73;;;;;;;;;;5051616;28;20498;-52
2022/11/30 03:07:35;;;;;;;23.33;14.27;;;;;;;;;;5046305;28;20917;-54
2022/11/30 03:10:01;;;;;;;23.37;13.33;;;;;;;;;;5059470;28;20473;-54
2022/11/30 03:12:26;;;;;;;27.37;14.70;;;;;;;;;;5054097;28;20480;-54
2022/11/30 03:14:53;;;;;;;21.07;13.40;;;;;;;;;;5057645;28;20438;-53
2022/11/30 03:17:19;;;;;;;21.23;13.17;;;;;;;;;;5037915;28;20433;-53
2022/11/30 03:19:44;;;;;;;19.10;12.77;;;;;;;;;;5056775;28;20536;-54
2022/11/30 03:22:10;;;;;;;17.90;12.47;;;;;;;;;;5032542;28;20972;-53
2022/11/30 03:24:36;;;;;;;21.77;13.87;;;;;;;;;;5063720;28;20813;-53
2022/11/30 03:27:02;;;;;;;19.47;13.40;;;;;;;;;;5012805;28;21310;-53
2022/11/30 03:29:28;;;;;;;21.43;13.40;;;;;;;;;;5063742;28;20954;-53
2022/11/30 03:31:54;;;;;;;21.93;13.73;;;;;;;;;;5019427;28;20445;-53
2022/11/30 03:34:21;;;;;;;17.10;11.57;;;;;;;;;;5051683;28;20445;-53
2022/11/30 03:36:47;;;;;;;17.67;11.20;;;;;;;;;;5034464;28;20447;-54
2022/11/30 03:39:13;;;;;;;20.67;12.50;;;;;;;;;;5051556;28;20811;-54
2022/11/30 03:41:39;;;;;;;19.77;11.97;;;;;;;;;;5053867;28;20479;-53
2022/11/30 03:44:05;;;;;;;17.47;11.37;;;;;;;;;;5030836;28;20437;-53
2022/11/30 03:46:31;;;;;;;21.07;13.00;;;;;;;;;;5056066;28;20445;-54
2022/11/30 03:48:57;;;;;;;18.77;11.43;;;;;;;;;;5031636;28;20477;-54
2022/11/30 03:51:23;;;;;;;19.90;13.63;;;;;;;;;;5057029;28;20475;-53
2022/11/30 03:53:49;;;;;;;18.37;11.40;;;;;;;;;;5036522;28;20610;-54
2022/11/30 03:56:15;;;;;;;17.43;13.13;;;;;;;;;;5060405;28;20532;-52
2022/11/30 03:58:41;;;;;;;19.13;11.93;;;;;;;;;;5011900;28;20447;-54
2022/11/30 04:01:14;;;;;;;21.53;11.90;;;;;;;;;;5050359;28;20476;-56
2022/11/30 04:03:40;;;;;;;19.53;10.57;;;;;;;;;;5041221;28;20540;-55
2022/11/30 04:06:07;;;;;;;18.47;11.70;;;;;;;;;;5044994;28;20480;-54
2022/11/30 04:08:33;;;;;;;25.83;12.37;;;;;;;;;;5057948;28;20530;-54
2022/11/30 04:10:59;;;;;;;19.13;11.57;;;;;;;;;;5055210;28;20437;-56
2022/11/30 04:13:25;;;;;;;22.73;12.50;;;;;;;;;;5062268;28;20954;-56
2022/11/30 04:15:51;;;;;;;19.80;12.10;;;;;;;;;;5052506;28;20476;-51
2022/11/30 04:18:17;;;;;;;19.97;11.33;;;;;;;;;;5054297;28;20489;-53
2022/11/30 04:20:43;;;;;;;20.33;12.77;;;;;;;;;;5049846;28;20486;-52
2022/11/30 04:23:10;;;;;;;17.90;11.67;;;;;;;;;;5050341;28;20533;-57
2022/11/30 04:25:39;;;;;;;18.00;12.00;;;;;;;;;;5032484;28;20970;-54
2022/11/30 04:28:05;;;;;;;18.80;12.23;;;;;;;;;;5060709;28;20449;-55
2022/11/30 04:30:32;;;;;;;21.07;12.30;;;;;;;;;;5014781;28;20467;-55
2022/11/30 04:32:58;;;;;;;19.07;11.97;;;;;;;;;;5056528;28;21018;-54
2022/11/30 04:35:24;;;;;;;18.40;11.30;;;;;;;;;;5056417;28;20533;-54
2022/11/30 04:37:50;;;;;;;19.67;11.87;;;;;;;;;;5060393;28;20516;-54
2022/11/30 04:40:16;;;;;;;22.43;14.10;;;;;;;;;;5023537;28;21337;-54
2022/11/30 04:42:42;;;;;;;25.67;13.00;;;;;;;;;;5042830;28;20476;-57
2022/11/30 04:45:11;;;;;;;20.90;12.60;;;;;;;;;;5057737;28;20444;-55
2022/11/30 04:47:37;;;;;;;17.80;10.20;;;;;;;;;;5047988;28;20441;-54
2022/11/30 04:50:04;;;;;;;18.83;11.43;;;;;;;;;;5059300;28;20513;-54
2022/11/30 04:52:30;;;;;;;19.07;12.97;;;;;;;;;;5040453;28;20504;-57
2022/11/30 04:54:56;;;;;;;20.87;12.63;;;;;;;;;;5063718;28;20489;-55
2022/11/30 04:57:22;;;;;;;18.47;13.03;;;;;;;;;;5037437;28;20524;-59
2022/11/30 04:59:48;;;;;;;23.63;13.03;;;;;;;;;;5062044;28;20441;-63
2022/11/30 05:02:14;;;;;;;21.20;12.23;;;;;;;;;;5009089;28;21014;-57
2022/11/30 05:04:40;;;;;;;23.40;12.50;;;;;;;;;;5051832;28;20548;-55
2022/11/30 05:07:06;;;;;;;23.50;13.43;;;;;;;;;;5032942;28;20828;-66
2022/11/30 05:09:32;;;;;;;25.70;13.10;;;;;;;;;;5064669;28;20937;-54
2022/11/30 05:11:58;;;;;;;25.20;14.53;;;;;;;;;;5032355;28;20946;-54
2022/11/30 05:14:24;;;;;;;23.97;13.17;;;;;;;;;;5059657;28;21436;-55
2022/11/30 05:16:51;;;;;;;21.10;13.20;;;;;;;;;;5049886;28;20441;-54
2022/11/30 05:19:16;;;;;;;23.50;13.80;;;;;;;;;;5048535;28;20441;-54
2022/11/30 05:21:42;;;;;;;21.63;12.27;;;;;;;;;;5034359;28;20446;-55
2022/11/30 05:24:09;;;;;;;21.00;13.03;;;;;;;;;;5055182;28;20531;-55
2022/11/30 05:26:35;;;;;;;19.07;12.20;;;;;;;;;;5032784;28;20479;-55
2022/11/30 05:29:02;;;;;;;18.57;12.07;;;;;;;;;;5057731;28;20485;-55
2022/11/30 05:31:28;;;;;;;19.67;12.03;;;;;;;;;;5014129;28;21008;-56
2022/11/30 05:33:54;;;;;;;19.00;12.43;;;;;;;;;;5064838;28;20462;-60
2022/11/30 05:36:20;;;;;;;17.87;11.27;;;;;;;;;;5054474;28;20433;-54
2022/11/30 05:38:46;;;;;;;21.53;12.90;;;;;;;;;;5059266;28;20444;-54
2022/11/30 05:41:12;;;;;;;24.57;13.10;;;;;;;;;;5022942;28;21022;-53
2022/11/30 05:43:38;;;;;;;14.20;10.37;;;;;;;;;;5062809;28;20437;-54
2022/11/30 05:46:04;;;;;;;17.63;11.43;;;;;;;;;;5033443;28;20540;-54
2022/11/30 05:48:30;;;;;;;17.33;10.30;;;;;;;;;;5058592;28;20857;-54
2022/11/30 05:51:04;;;;;;;19.93;11.50;;;;;;;;;;5047687;28;20437;-54
2022/11/30 05:53:30;;;;;;;27.03;12.57;;;;;;;;;;5050564;28;20468;-54
2022/11/30 05:55:56;;;;;;;16.73;11.07;;;;;;;;;;5043045;28;20453;-54
2022/11/30 05:58:22;;;;;;;20.00;10.73;;;;;;;;;;5058593;28;20429;-54
2022/11/30 06:00:48;;;;;;;19.10;10.53;;;;;;;;;;5040430;28;20458;-54
2022/11/30 06:03:14;;;;;;;19.80;11.80;;;;;;;;;;5055496;28;20478;-53
2022/11/30 06:05:55;;;;;;;22.63;11.63;;;;;;;;;;5026007;28;20498;-55
2022/11/30 06:08:21;;;;;;;16.47;10.43;;;;;;;;;;5032696;28;20989;-54
2022/11/30 06:10:47;;;;;;;19.17;10.63;;;;;;;;;;5057946;28;20445;-54
2022/11/30 06:13:13;;;;;;;19.53;11.50;;;;;;;;;;5028697;28;20437;-54
2022/11/30 06:15:39;;;;;;;18.97;11.67;;;;;;;;;;5045895;28;20434;-55
2022/11/30 06:18:05;;;;;;;14.47;10.20;;;;;;;;;;5033946;28;20442;-54
2022/11/30 06:20:31;;;;;;;19.00;9.70;;;;;;;;;;5054019;28;20528;-54
2022/11/30 06:22:57;;;;;;;16.10;10.43;;;;;;;;;;5035876;28;20433;-55
2022/11/30 06:25:24;;;;;;;17.37;10.30;;;;;;;;;;5061899;28;20446;-54
2022/11/30 06:27:50;;;;;;;18.27;9.70;;;;;;;;;;5051061;28;21070;-54
2022/11/30 06:30:16;;;;;;;14.90;9.60;;;;;;;;;;5057877;28;20509;-54
2022/11/30 06:32:45;;;;;;;14.30;10.20;;;;;;;;;;5033793;28;20491;-54
2022/11/30 06:35:11;;;;;;;17.83;10.67;;;;;;;;;;5054340;28;20438;-54
2022/11/30 06:37:37;;;;;;;15.73;10.70;;;;;;;;;;5014006;28;20453;-54
2022/11/30 06:40:03;;;;;;;16.17;10.53;;;;;;;;;;5059068;28;20897;-54
2022/11/30 06:42:29;;;;;;;20.13;10.57;;;;;;;;;;5028189;28;20446;-53
2022/11/30 06:44:55;;;;;;;16.00;10.53;;;;;;;;;;5057859;28;20441;-54
2022/11/30 06:47:21;;;;;;;19.43;10.30;;;;;;;;;;5057272;28;20502;-52
2022/11/30 06:49:47;;;;;;;19.63;11.13;;;;;;;;;;5060596;28;20569;-54
2022/11/30 06:52:13;;;;;;;14.40;8.90;;;;;;;;;;5036575;28;20853;-54
2022/11/30 06:54:39;;;;;;;13.53;8.87;;;;;;;;;;5060103;28;20816;-54
2022/11/30 06:57:05;;;;;;;16.73;9.50;;;;;;;;;;5037677;28;22404;-55
2022/11/30 06:59:31;;;;;;;17.37;10.87;;;;;;;;;;5065610;28;20937;-54
2022/11/30 07:01:57;;;;;;;17.50;9.70;;;;;;;;;;5052254;28;20436;-54
2022/11/30 07:04:23;;;;;;;16.37;10.27;;;;;;;;;;5060742;28;20505;-53
2022/11/30 07:06:49;;;;;;;14.57;9.37;;;;;;;;;;5031010;28;20807;-53
2022/11/30 07:09:15;;;;;;;17.20;11.77;;;;;;;;;;5059989;28;20474;-53
2022/11/30 07:11:41;;;;;;;17.10;10.03;;;;;;;;;;5015730;28;20486;-55
2022/11/30 07:14:07;;;;;;;17.30;9.87;;;;;;;;;;5062499;28;20437;-54
2022/11/30 07:16:33;;;;;;;19.43;11.63;;;;;;;;;;5025105;28;20567;-53
2022/11/30 07:18:59;;;;;;;15.20;9.23;;;;;;;;;;5062799;28;20520;-53
2022/11/30 07:21:25;;;;;;;18.77;11.77;;;;;;;;;;5052816;28;20451;-53
2022/11/30 07:26:35;;;;;;;20.43;9.50;;;;;;;;;;5040334;28;20485;-54
2022/11/30 07:29:04;;;;;;;13.20;9.10;;;;;;;;;;5062757;28;20505;-55
2022/11/30 07:31:30;;;;;;;16.70;9.93;;;;;;;;;;5053644;28;20479;-54
2022/11/30 07:33:56;;;;;;;14.53;10.20;;;;;;;;;;5062876;28;20461;-53
2022/11/30 07:36:23;;;;;;;15.13;9.77;;;;;;;;;;5040238;28;20453;-53
2022/11/30 07:38:49;;;;;;;14.40;10.00;;;;;;;;;;5061926;28;20433;-54
2022/11/30 07:41:15;;;;;;;17.90;10.37;;;;;;;;;;5022794;28;21219;-53
2022/11/30 07:43:41;;;;;;;15.00;11.30;;;;;;;;;;5059379;28;20445;-53
2022/11/30 07:46:14;;;;;;;15.70;9.80;;;;;;;;;;5051337;28;20938;-57
2022/11/30 07:48:40;;;;;;;14.83;9.37;;;;;;;;;;5042308;28;20469;-54
2022/11/30 07:51:07;;;;;;;17.10;9.53;;;;;;;;;;5072285;28;21037;-53
2022/11/30 07:53:33;;;;;;;22.57;11.03;;;;;;;;;;5055950;28;20439;-54
2022/11/30 07:56:03;;;;;;;13.87;9.63;;;;;;;;;;5059761;28;20452;-54
2022/11/30 07:58:29;;;;;;;14.00;9.93;;;;;;;;;;5041570;28;21032;-55
2022/11/30 08:00:59;;;;;;;20.23;10.23;;;;;;;;;;5061095;28;20442;-57
2022/11/30 08:03:25;;;;;;;16.33;10.77;;;;;;;;;;5040558;28;20973;-54
2022/11/30 08:05:51;;;;;;;21.03;11.50;;;;;;;;;;5057903;28;20446;-54
2022/11/30 08:08:17;;;;;;;17.30;10.77;;;;;;;;;;5024442;28;20473;-53
2022/11/30 08:10:43;;;;;;;17.27;11.07;;;;;;;;;;5058240;28;20448;-53
2022/11/30 08:13:09;;;;;;;23.40;13.83;;;;;;;;;;4989888;28;20452;-53
2022/11/30 08:15:35;;;;;;;17.70;12.33;;;;;;;;;;5054680;28;20443;-53
2022/11/30 08:18:04;;;;;;;19.73;11.30;;;;;;;;;;5030923;28;20433;-53
2022/11/30 08:20:30;;;;;;;21.07;12.27;;;;;;;;;;5058426;28;20418;-52
2022/11/30 08:23:33;;;;;;;15.70;10.77;;;;;;;;;;5056685;28;20433;-54
2022/11/30 08:26:06;;;;;;;20.33;12.40;;;;;;;;;;5048530;28;21005;-52
2022/11/30 08:28:34;;;;;;;22.40;12.43;;;;;;;;;;5027083;28;20503;-53
2022/11/30 08:31:02;;;;;;;18.33;11.37;;;;;;;;;;5048004;28;20426;-53
2022/11/30 08:33:29;;;;;;;15.93;11.03;;;;;;;;;;5027635;28;20438;-54
2022/11/30 08:35:55;;;;;;;23.13;11.07;;;;;;;;;;5049424;28;20445;-53
2022/11/30 08:38:27;;;;;;;22.47;13.47;;;;;;;;;;5026179;28;20480;-52
2022/11/30 08:40:56;;;;;;;20.30;11.40;;;;;;;;;;5036830;28;20445;-55
2022/11/30 08:43:31;;;;;;;18.00;11.07;;;;;;;;;;5020557;28;21578;-52
2022/11/30 08:45:57;;;;;;;19.97;12.07;;;;;;;;;;5054382;28;20438;-52
2022/11/30 08:48:33;;;;;;;17.30;10.27;;;;;;;;;;5036603;28;20457;-52
2022/11/30 08:51:09;;;;;;;19.70;12.70;;;;;;;;;;5054304;28;20464;-52
2022/11/30 08:53:35;;;;;;;19.70;10.27;;;;;;;;;;5046170;28;20771;-53
2022/11/30 08:56:02;;;;;;;17.97;10.97;;;;;;;;;;5038426;28;20962;-51
2022/11/30 08:58:31;;;;;;;20.00;12.60;;;;;;;;;;5030177;28;20539;-52
2022/11/30 09:01:13;;;;;;;20.90;13.47;;;;;;;;;;5057445;28;20527;-53
2022/11/30 09:03:40;;;;;;;26.20;12.97;;;;;;;;;;5024716;28;20604;-52
2022/11/30 09:06:06;;;;;;;19.63;12.70;;;;;;;;;;5048933;28;20532;-53
2022/11/30 09:08:33;;;;;;;19.20;11.90;;;;;;;;;;5026350;28;20791;-52
2022/11/30 09:10:59;;;;;;;19.23;14.43;;;;;;;;;;5042289;28;20461;-51
2022/11/30 09:13:25;;;;;;;22.03;12.73;;;;;;;;;;5021510;28;20763;-53
2022/11/30 09:15:55;;;;;;;21.97;12.50;;;;;;;;;;5006077;28;20548;-54
2022/11/30 09:18:21;;;;;;;20.23;11.70;;;;;;;;;;5051008;28;20519;-53
2022/11/30 09:20:47;;;;;;;17.87;10.83;;;;;;;;;;5025091;28;20793;-53
2022/11/30 09:23:13;;;;;;;16.67;11.80;;;;;;;;;;5048778;28;20431;-51
2022/11/30 09:25:39;;;;;;;22.67;12.43;;;;;;;;;;5039709;28;20506;-53
2022/11/30 09:28:05;;;;;;;24.70;13.00;;;;;;;;;;5041204;28;20441;-51
2022/11/30 09:30:31;;;;;;;18.50;9.90;;;;;;;;;;5035445;28;20871;-53
2022/11/30 09:32:59;;;;;;;23.50;12.90;;;;;;;;;;5057902;28;20426;-55
2022/11/30 09:35:25;;;;;;;24.60;12.97;;;;;;;;;;5024066;28;20958;-52
2022/11/30 09:37:52;;;;;;;19.67;12.70;;;;;;;;;;5063431;28;20465;-59
2022/11/30 09:40:18;;;;;;;18.20;11.17;;;;;;;;;;5028202;28;20449;-52
2022/11/30 09:42:44;;;;;;;22.37;11.53;;;;;;;;;;5056109;28;20491;-52
2022/11/30 09:45:21;;;;;;;12.77;10.20;;;;;;;;;;4998812;28;20441;-53
2022/11/30 09:47:47;;;;;;;18.67;11.33;;;;;;;;;;5057018;28;20460;-53
2022/11/30 09:50:14;;;;;;;17.47;11.47;;;;;;;;;;5036770;28;21079;-51
2022/11/30 09:52:48;;;;;;;23.77;10.87;;;;;;;;;;5057576;28;20457;-53
2022/11/30 09:55:17;;;;;;;22.90;11.00;;;;;;;;;;5026646;28;20441;-52
2022/11/30 09:57:43;;;;;;;16.13;9.83;;;;;;;;;;5072579;28;20425;-52
2022/11/30 10:00:21;;;;;;;17.97;11.10;;;;;;;;;;5030444;28;20449;-52
2022/11/30 10:02:51;;;;;;;15.97;9.10;;;;;;;;;;5046308;28;20472;-52
2022/11/30 10:05:18;;;;;;;19.17;10.83;;;;;;;;;;5051147;28;20478;-53
2022/11/30 10:07:48;;;;;;;15.23;10.90;;;;;;;;;;5060165;28;20445;-52
2022/11/30 10:10:14;;;;;;;19.13;9.97;;;;;;;;;;5035082;28;20470;-54
2022/11/30 10:12:59;;;;;;;19.43;12.17;;;;;;;;;;5054786;28;20441;-57
2022/11/30 10:15:37;;;;;;;20.97;10.00;;;;;;;;;;5032476;28;20460;-53
2022/11/30 10:18:19;;;;;;;20.37;11.17;;;;;;;;;;5043313;28;20440;-54
2022/11/30 10:20:48;;;;;;;19.40;11.53;;;;;;;;;;5002147;28;20460;-54
2022/11/30 10:23:14;;;;;;;17.20;10.43;;;;;;;;;;5052434;28;20439;-53
2022/11/30 10:25:40;;;;;;;24.00;11.40;;;;;;;;;;5059881;28;20505;-57
2022/11/30 10:28:26;;;;;;;20.07;11.97;;;;;;;;;;5031603;28;20433;-54
2022/11/30 10:30:52;;;;;;;22.07;13.30;;;;;;;;;;5054048;28;20449;-53
2022/11/30 10:33:19;;;;;;;22.30;12.40;;;;;;;;;;5039301;28;20548;-58
2022/11/30 10:35:49;;;;;;;17.60;10.53;;;;;;;;;;5037555;28;20447;-52
2022/11/30 10:38:23;;;;;;;17.50;10.30;;;;;;;;;;5032259;28;20803;-54
2022/11/30 10:40:53;;;;;;;25.00;13.27;;;;;;;;;;5062322;28;20465;-53
2022/11/30 10:43:32;;;;;;;18.50;11.33;;;;;;;;;;5032913;28;20441;-52
2022/11/30 10:45:58;;;;;;;22.87;12.60;;;;;;;;;;5048250;28;20480;-54
2022/11/30 10:48:35;;;;;;;21.33;12.63;;;;;;;;;;5038015;28;20540;-51
2022/11/30 10:51:01;;;;;;;16.60;9.90;;;;;;;;;;5055861;28;20541;-53
2022/11/30 10:53:27;;;;;;;22.70;11.53;;;;;;;;;;5019881;28;20437;-52
2022/11/30 10:55:58;;;;;;;18.63;10.40;;;;;;;;;;5064012;28;21244;-52
2022/11/30 10:58:27;;;;;;;28.77;12.13;;;;;;;;;;5038362;28;20460;-53
2022/11/30 11:00:58;;;;;;;15.90;10.90;;;;;;;;;;5078771;28;20456;-53
2022/11/30 11:03:24;;;;;;;19.93;11.80;;;;;;;;;;5033280;28;20502;-52
2022/11/30 11:06:24;;;;;;;18.60;10.97;;;;;;;;;;5046953;28;20442;-54
2022/11/30 11:08:49;;;;;;;21.83;10.77;;;;;;;;;;5034650;28;20826;-53
2022/11/30 11:11:34;;;;;;;21.40;12.33;;;;;;;;;;5051182;28;20426;-52
2022/11/30 11:14:09;;;;;;;18.60;10.83;;;;;;;;;;5041352;28;20463;-52
2022/11/30 11:16:55;;;;;;;22.50;12.43;;;;;;;;;;5049033;28;20436;-53
2022/11/30 11:19:31;;;;;;;18.90;12.47;;;;;;;;;;5053357;28;20475;-52
2022/11/30 11:22:01;;;;;;;18.97;12.13;;;;;;;;;;5024812;28;20808;-52
2022/11/30 11:24:27;;;;;;;20.60;11.10;;;;;;;;;;5041578;28;20825;-53
2022/11/30 11:26:56;;;;;;;18.23;10.73;;;;;;;;;;5025176;28;20940;-55
2022/11/30 11:29:30;;;;;;;16.60;10.80;;;;;;;;;;5051088;28;21009;-53
2022/11/30 11:32:04;;;;;;;22.13;11.30;;;;;;;;;;5026344;28;20443;-54
2022/11/30 11:34:31;;;;;;;19.70;12.33;;;;;;;;;;5056325;28;20433;-52
2022/11/30 11:37:03;;;;;;;21.63;13.00;;;;;;;;;;5028996;28;20457;-52
2022/11/30 11:39:29;;;;;;;17.70;10.47;;;;;;;;;;5035571;28;20445;-54
2022/11/30 11:41:55;;;;;;;19.07;11.17;;;;;;;;;;5046174;28;20483;-54
2022/11/30 11:44:24;;;;;;;20.30;11.10;;;;;;;;;;5051601;28;20465;-53
2022/11/30 11:46:55;;;;;;;16.30;9.83;;;;;;;;;;5027928;28;21654;-53
2022/11/30 11:49:22;;;;;;;19.00;11.00;;;;;;;;;;5054810;28;20485;-51
2022/11/30 11:51:49;;;;;;;17.83;11.47;;;;;;;;;;5033720;28;20530;-55
2022/11/30 11:54:20;;;;;;;15.57;9.40;;;;;;;;;;5050769;28;20484;-51
2022/11/30 11:56:46;;;;;;;17.50;10.60;;;;;;;;;;5057024;28;20499;-54
2022/11/30 11:59:14;;;;;;;17.77;12.10;;;;;;;;;;5053267;28;20463;-54
2022/11/30 12:01:58;;;;;;;16.73;10.63;;;;;;;;;;5021654;28;20979;-53
2022/11/30 12:04:32;;;;;;;20.63;11.60;;;;;;;;;;5020640;28;21199;-52
2022/11/30 12:06:58;;;;;;;23.80;12.90;;;;;;;;;;5050029;28;20449;-53
2022/11/30 12:09:25;;;;;;;17.80;11.13;;;;;;;;;;5034610;28;20473;-52
2022/11/30 12:11:51;;;;;;;20.77;12.00;;;;;;;;;;5061514;28;20452;-52
2022/11/30 12:14:17;;;;;;;19.80;11.83;;;;;;;;;;5024396;28;20446;-53
2022/11/30 12:16:46;;;;;;;17.43;9.90;;;;;;;;;;5054379;28;20433;-52
2022/11/30 12:19:13;;;;;;;18.03;11.30;;;;;;;;;;5038019;28;20457;-52
2022/11/30 12:21:58;;;;;;;17.60;8.77;;;;;;;;;;5055689;28;20429;-54
2022/11/30 12:24:47;;;;;;;15.40;9.63;;;;;;;;;;5029080;28;20950;-52
2022/11/30 12:27:16;;;;;;;14.70;8.80;;;;;;;;;;5018805;28;20445;-55
2022/11/30 12:29:48;;;;;;;15.47;8.07;;;;;;;;;;5047669;28;20486;-54
2022/11/30 12:32:33;;;;;;;12.80;6.83;;;;;;;;;;5064940;28;20528;-55
2022/11/30 12:35:25;;;;;;;14.67;8.57;;;;;;;;;;5052608;28;20421;-54
2022/11/30 12:37:52;;;;;;;13.03;6.97;;;;;;;;;;5029603;28;20507;-53
2022/11/30 12:40:22;;;;;;;10.67;6.90;;;;;;;;;;5048030;28;20451;-56
2022/11/30 12:42:52;;;;;;;11.60;7.83;;;;;;;;;;5033716;28;21020;-54
2022/11/30 12:45:47;;;;;;;17.60;9.40;;;;;;;;;;5028145;28;20519;-55
2022/11/30 12:48:25;;;;;;;12.97;8.40;;;;;;;;;;5047213;28;20551;-54
2022/11/30 12:51:10;;;;;;;14.13;8.50;;;;;;;;;;5030704;28;21064;-53
2022/11/30 12:53:42;;;;;;;12.77;7.97;;;;;;;;;;5053200;28;20454;-55
2022/11/30 12:56:09;;;;;;;15.43;8.73;;;;;;;;;;5032381;28;20461;-55
2022/11/30 12:58:37;;;;;;;13.70;9.30;;;;;;;;;;5055160;28;20555;-56
2022/11/30 13:01:04;;;;;;;13.73;8.10;;;;;;;;;;5024221;28;20946;-53
2022/11/30 13:03:53;;;;;;;17.80;9.03;;;;;;;;;;5028813;28;20461;-53
2022/11/30 13:06:47;;;;;;;15.00;7.73;;;;;;;;;;5010816;28;20465;-53
2022/11/30 13:09:22;;;;;;;16.07;8.87;;;;;;;;;;5055268;28;20495;-55
2022/11/30 13:11:52;;;;;;;19.80;10.30;;;;;;;;;;5020434;28;20452;-56
2022/11/30 13:14:21;;;;;;;16.30;9.30;;;;;;;;;;5044461;28;20434;-53
2022/11/30 13:16:47;;;;;;;15.23;9.10;;;;;;;;;;5019014;28;20434;-53
2022/11/30 13:19:17;;;;;;;17.10;9.97;;;;;;;;;;5040560;28;20941;-53
2022/11/30 13:21:44;;;;;;;14.80;9.60;;;;;;;;;;5024521;28;21453;-57
2022/11/30 13:24:12;;;;;;;18.00;10.60;;;;;;;;;;5049382;28;20993;-53
2022/11/30 13:26:51;;;;;;;17.00;10.17;;;;;;;;;;5026515;28;21240;-58
2022/11/30 13:29:21;;;;;;;14.17;8.30;;;;;;;;;;5060064;28;20480;-59
2022/11/30 13:31:47;;;;;;;17.47;10.60;;;;;;;;;;5042836;28;20431;-54
2022/11/30 13:34:23;;;;;;;27.57;10.20;;;;;;;;;;5036760;28;20446;-54
2022/11/30 13:36:49;;;;;;;18.00;10.10;;;;;;;;;;4996227;28;24534;-57
2022/11/30 13:39:22;;;;;;;17.17;9.87;;;;;;;;;;5050946;28;20535;-53
2022/11/30 13:41:48;;;;;;;22.70;10.17;;;;;;;;;;5025220;28;22942;-57
2022/11/30 13:44:33;;;;;;;14.87;10.27;;;;;;;;;;5047605;28;20445;-55
2022/11/30 13:47:03;;;;;;;24.40;11.00;;;;;;;;;;5023825;28;20521;-53
2022/11/30 13:49:30;;;;;;;16.00;9.70;;;;;;;;;;5066433;28;20484;-54
2022/11/30 13:51:56;;;;;;;20.00;10.27;;;;;;;;;;5010301;28;20666;-53
2022/11/30 13:54:28;;;;;;;15.40;10.40;;;;;;;;;;5052148;28;20452;-53
2022/11/30 13:56:54;;;;;;;15.43;9.37;;;;;;;;;;5046418;28;20425;-52
2022/11/30 13:59:23;;;;;;;16.93;10.60;;;;;;;;;;5042339;28;20507;-52
2022/11/30 14:01:50;;;;;;;15.77;10.60;;;;;;;;;;5020833;28;20442;-56
2022/11/30 14:04:27;;;;;;;12.47;8.47;;;;;;;;;;5050440;28;20472;-58
2022/11/30 14:06:58;;;;;;;13.57;8.27;;;;;;;;;;5001540;28;21614;-53
2022/11/30 14:09:53;;;;;;;18.37;10.33;;;;;;;;;;5029630;28;20666;-53
2022/11/30 14:12:39;;;;;;;14.27;9.83;;;;;;;;;;5026139;28;20568;-52
2022/11/30 14:15:24;;;;;;;12.30;7.90;;;;;;;;;;5050125;28;20441;-52
2022/11/30 14:17:50;;;;;;;16.87;9.90;;;;;;;;;;5045492;28;20437;-53
2022/11/30 14:20:17;;;;;;;16.67;9.83;;;;;;;;;;5046154;28;20431;-53
2022/11/30 14:22:43;;;;;;;12.30;8.30;;;;;;;;;;5040789;28;20450;-54
2022/11/30 14:25:13;;;;;;;14.40;8.57;;;;;;;;;;5027350;28;20442;-53
2022/11/30 14:27:39;;;;;;;16.53;8.93;;;;;;;;;;5026950;28;20463;-53
2022/11/30 14:30:05;;;;;;;14.10;9.03;;;;;;;;;;5049741;28;20481;-53
2022/11/30 14:32:36;;;;;;;16.67;9.27;;;;;;;;;;5048218;28;20446;-54